NCAR-RAP Real-Time Weather Data

Output produced by METARs form (17 October 2018  16:10 UTC)
found at http://weather.rap.ucar.edu/surface/
 
RJGG 171600Z 35011KT 9999 FEW030 17/12 Q1012 NOSIG
RJGG 171530Z 35010KT 9999 FEW030 SCT/// 18/12 Q1012 NOSIG
RJGG 171500Z 35009KT 9999 FEW030 SCT/// 17/12 Q1012 NOSIG
RJGG 171430Z 35010KT 9999 FEW030 SCT/// 17/12 Q1012 NOSIG
RJGG 171400Z 34009KT 9999 FEW030 BKN/// 19/13 Q1012 NOSIG
RJGG 171330Z 33010KT 9999 FEW030 BKN/// 19/13 Q1012 NOSIG
RJGG 171300Z 35009KT 9999 FEW030 BKN/// 18/12 Q1012 NOSIG
RJGG 171230Z 35009KT 9999 FEW030 BKN/// 18/12 Q1012 NOSIG
RJGG 171200Z 33010KT 9999 FEW030 BKN/// 20/13 Q1012 NOSIG
RJGG 171130Z 32013KT 9999 FEW030 BKN/// 20/14 Q1012 NOSIG
RJGG 171100Z 32014KT 9999 FEW030 BKN/// 20/14 Q1012 NOSIG
RJGG 171030Z 32012KT 9999 FEW030 BKN/// 21/14 Q1011 NOSIG
RJGG 171000Z 32012KT 9999 FEW030 BKN/// 21/13 Q1011 NOSIG
RJGG 170930Z 32013KT 9999 FEW030 BKN/// 21/14 Q1011 NOSIG
RJGG 170900Z 31011KT 9999 FEW030 BKN/// 21/13 Q1011 NOSIG
RJGG 170830Z 31008KT 9999 FEW030 BKN/// 21/12 Q1011 NOSIG
RJGG 170800Z 30007KT 9999 FEW030 BKN/// 22/11 Q1011 NOSIG
RJGG 170730Z 28008KT 9999 FEW030 BKN/// 22/12 Q1010 NOSIG
RJGG 170700Z 29008KT 9999 FEW030 BKN/// 22/11 Q1010 NOSIG
RJGG 170630Z 31011KT 9999 FEW030 BKN/// 22/11 Q1009 NOSIG
RJGG 170600Z 31005KT 9999 FEW030 BKN/// 22/11 Q1009 NOSIG
RJGG 170530Z 27006KT 9999 FEW030 BKN/// 22/12 Q1009 NOSIG
RJGG 170500Z 26005KT 9999 FEW030 BKN/// 22/11 Q1009 BECMG 28006KT
RJGG 170430Z 24005KT 9999 FEW030 BKN/// 22/11 Q1009 NOSIG
RJGG 170400Z 24006KT 9999 FEW030 BKN/// 22/11 Q1009 BECMG 28006KT
RJGG 170330Z 25007KT 9999 FEW030 BKN/// 22/12 Q1009 BECMG 28006KT
RJGG 170300Z 26005KT 9999 FEW025 BKN/// 22/13 Q1009 BECMG 28006KT
RJGG 170230Z 30007KT 9999 FEW025 BKN/// 22/12 Q1010 NOSIG
RJGG 170200Z 33008KT 9999 FEW025 BKN/// 21/11 Q1010 NOSIG
RJGG 170130Z 32007KT 9999 FEW025 BKN/// 21/12 Q1010 NOSIG
RJGG 170100Z 32005KT 9999 FEW020 BKN/// 20/12 Q1011 NOSIG
RJGG 170030Z 31005KT 9999 FEW020 BKN/// 19/12 Q1011 NOSIG
RJGG 170000Z 31005KT 9999 FEW020 BKN/// 19/12 Q1011 NOSIG
RJGG 162330Z 32003KT 280V340 9999 FEW020 SCT/// 19/12 Q1011 NOSIG
RJGG 162300Z 35005KT 320V020 9999 FEW020 19/12 Q1010 NOSIG
RJGG 162230Z 34007KT 9999 FEW020 SCT/// 18/12 Q1010 NOSIG
RJGG 162200Z 33007KT 9999 FEW020 SCT/// 18/12 Q1010 NOSIG
RJGG 162130Z 36008KT 9999 FEW020 SCT/// 16/12 Q1010 NOSIG
RJGG 162100Z 36007KT 9999 FEW020 15/12 Q1010 NOSIG
RJGG 162030Z 02006KT 9999 FEW020 SCT150 16/12 Q1010 NOSIG
RJGG 162000Z 02005KT 350V060 9999 FEW020 BKN150 17/14 Q1010 NOSIG
RJGG 161930Z 35007KT 9999 FEW020 SCT080 BKN140 17/13 Q1010 NOSIG
RJGG 161900Z 33009KT 9999 FEW020 BKN150 18/13 Q1009 NOSIG
RJGG 161830Z 32008KT 9999 FEW020 BKN130 18/13 Q1009 NOSIG
RJGG 161800Z 36007KT 9999 FEW020 BKN130 17/13 Q1009 NOSIG
RJGG 161730Z 34010KT 9999 FEW020 BKN130 17/12 Q1009 NOSIG
RJGG 161700Z 36007KT 9999 FEW020 SCT050 BKN130 17/14 Q1009 NOSIG
RJGG 161630Z 35007KT 9999 VCSH FEW020 SCT050 BKN130 17/14 Q1009 NOSIG
RJGG 161600Z 36006KT 9999 FEW020 BKN120 BKN/// 17/15 Q1009 NOSIG
RJGG 161530Z 04004KT 9999 FEW020 BKN120 BKN/// 18/14 Q1010 NOSIG
RJGG 161500Z 04004KT 9999 FEW020 SCT120 BKN180 18/15 Q1010 NOSIG
RJGG 161430Z 04004KT 9999 FEW020 SCT130 BKN180 18/15 Q1010 NOSIG
RJGG 161400Z 35006KT 9999 FEW020 SCT130 BKN180 18/15 Q1010 NOSIG
RJGG 161330Z 32007KT 9999 FEW020 SCT130 BKN180 19/14 Q1010 NOSIG
RJGG 161300Z 29005KT 9999 FEW020 BKN130 BKN/// 20/15 Q1010 NOSIG
RJGG 161230Z 27004KT 9999 FEW020 SCT130 BKN/// 20/16 Q1010 NOSIG
RJGG 161200Z 24007KT 9999 FEW020 SCT150 BKN/// 20/16 Q1010 BECMG 32012KT
RJGG 161130Z 24006KT 9999 FEW020 SCT150 BKN/// 20/15 Q1010 BECMG 32012KT
RJGG 161100Z 23005KT 9999 FEW020 BKN150 BKN/// 20/15 Q1010 BECMG 32012KT
RJGG 161030Z 26005KT 210V310 9999 VCSH FEW020 BKN150 BKN/// 20/15 Q1010 BECMG 32012KT
RJGG 161000Z 26003KT 9999 FEW020 BKN120 BKN/// 20/14 Q1010 BECMG 32012KT
RJGG 160930Z VRB02KT 9999 FEW020 BKN130 BKN/// 20/14 Q1010 NOSIG
RJGG 160900Z VRB01KT 9999 FEW020 BKN130 BKN/// 20/14 Q1010 NOSIG
RJGG 160830Z VRB02KT 9999 FEW020 BKN130 BKN/// 20/14 Q1010 NOSIG
RJGG 160800Z VRB01KT 9999 FEW020 BKN150 BKN/// 20/14 Q1010 NOSIG
RJGG 160730Z 33003KT 260V350 9999 FEW020 BKN150 BKN/// 20/14 Q1011 NOSIG
RJGG 160700Z 35003KT 310V090 9999 FEW020 SCT170 BKN/// 19/14 Q1011 NOSIG
RJGG 160630Z 05003KT 010V090 9999 FEW020 BKN/// 20/14 Q1011 NOSIG
RJGG 160600Z 34003KT 9999 FEW020 BKN/// 19/14 Q1011 NOSIG
RJGG 160530Z VRB02KT 9999 FEW020 BKN/// 19/14 Q1011 NOSIG
RJGG 160500Z 35004KT 320V040 9999 FEW020 BKN/// 19/14 Q1012 NOSIG
RJGG 160430Z 35004KT 9999 FEW020 BKN/// 19/14 Q1012 NOSIG
RJGG 160400Z 32003KT 9999 FEW020 SCT140 BKN/// 19/15 Q1013 NOSIG
RJGG 160330Z 31003KT 280V350 9999 FEW020 BKN140 BKN/// 19/14 Q1013 NOSIG
RJGG 160300Z 31004KT 9999 FEW020 SCT140 BKN/// 19/14 Q1013 NOSIG
RJGG 160230Z 31004KT 9999 FEW020 BKN/// 19/15 Q1013 NOSIG
RJGG 160200Z 34006KT 9999 FEW020 BKN/// 18/14 Q1014 NOSIG
RJGG 160130Z 33006KT 9999 FEW015 BKN/// 18/13 Q1014 NOSIG
RJGG 160100Z 34007KT 9999 FEW015 BKN/// 18/14 Q1014 NOSIG
RJGG 160030Z 36006KT 330V040 9999 FEW015 BKN/// 18/14 Q1014 NOSIG
RJGG 160000Z 35009KT 9999 FEW015 BKN/// 18/14 Q1015 NOSIG
RJGG 152330Z 35009KT 9999 FEW015 BKN/// 17/14 Q1015 NOSIG
RJGG 152300Z 01008KT 9999 FEW015 BKN/// 17/14 Q1015 NOSIG
RJGG 152230Z 35008KT 9999 FEW010 BKN/// 17/14 Q1015 NOSIG
RJGG 152200Z 03005KT 9999 FEW010 BKN/// 16/14 Q1015 NOSIG
RJGG 152130Z 02006KT 9999 FEW010 BKN/// 16/14 Q1015 NOSIG
RJGG 152100Z 01007KT 9999 FEW007 BKN/// 15/14 Q1015 NOSIG
RJGG 152030Z 35010KT 9999 FEW007 BKN/// 15/14 Q1016 NOSIG
RJGG 152000Z 01004KT 9999 FEW007 BKN/// 15/14 Q1016 NOSIG
RJGG 151930Z 04002KT 9999 FEW010 BKN/// 15/14 Q1015 NOSIG
RJGG 151900Z 05002KT 9999 FEW007 SCT/// 15/14 Q1015 NOSIG
RJGG 151830Z 02005KT 9999 FEW007 BKN/// 15/14 Q1016 NOSIG
RJGG 151800Z 36005KT 9999 FEW007 BKN/// 15/14 Q1016 NOSIG
RJGG 151730Z 03005KT 9999 FEW007 BKN/// 16/14 Q1016 NOSIG
RJGG 151700Z 03006KT 9999 FEW008 BKN/// 16/15 Q1016 NOSIG
RJGG 151630Z 36008KT 9999 FEW008 SCT010 BKN/// 16/15 Q1016 NOSIG
RJGG 151600Z 01004KT 9999 FEW010 BKN/// 15/13 Q1016 NOSIG
RJGG 151530Z 03004KT 9999 FEW010 BKN/// 15/14 Q1016 NOSIG
RJGG 151500Z 04003KT 9999 FEW010 BKN/// 16/14 Q1016 NOSIG
RJGG 151430Z 05005KT 9999 FEW010 BKN/// 16/15 Q1016 NOSIG
RJGG 151400Z 04005KT 9999 FEW010 BKN/// 16/14 Q1016 NOSIG
RJGG 151330Z 05006KT 9999 FEW010 BKN/// 17/14 Q1017 NOSIG
RJGG 151300Z 03005KT 9999 FEW010 BKN/// 17/15 Q1017 NOSIG
RJGG 151230Z 06003KT 9999 FEW010 BKN/// 17/15 Q1017 NOSIG
RJGG 151200Z 05004KT 8000 FEW010 SCT015 BKN/// 17/15 Q1017 NOSIG
RJGG 151130Z 03004KT 350V070 8000 FEW010 BKN/// 17/16 Q1017 NOSIG
RJGG 151100Z 06003KT 9999 FEW015 BKN/// 17/15 Q1017 NOSIG
RJGG 151030Z 02003KT 330V050 9999 FEW015 BKN/// 18/15 Q1017 NOSIG
RJGG 151000Z 36002KT 9999 FEW010 BKN/// 17/15 Q1017 NOSIG
RJGG 150930Z VRB01KT 9999 FEW010 BKN/// 18/15 Q1017 NOSIG
RJGG 150900Z VRB02KT 9000 FEW010 BKN/// 17/15 Q1017 NOSIG
RJGG 150830Z VRB02KT 8000 FEW010 BKN/// 18/15 Q1016 NOSIG
RJGG 150800Z 05003KT 350V100 8000 FEW010 BKN/// 18/15 Q1016 NOSIG
RJGG 150730Z VRB02KT 8000 FEW010 SCT090 BKN/// 18/15 Q1017 BECMG 06005KT
RJGG 150700Z 05003KT 330V080 7000 FEW010 SCT040 BKN090 18/15 Q1017 NOSIG
RJGG 150630Z VRB02KT 7000 FEW010 SCT040 BKN090 18/16 Q1017 BECMG 02005KT
RJGG 150600Z 06003KT 030V100 7000 FEW010 SCT040 BKN080 18/16 Q1017 NOSIG
RJGG 150530Z 06005KT 020V090 7000 FEW010 SCT040 BKN080 18/16 Q1016 NOSIG
RJGG 150500Z 04005KT 6000 -RA BR FEW005 SCT040 BKN080 18/16 Q1016 NOSIG
RJGG 150430Z 03005KT 6000 -RA BR FEW015 SCT030 BKN080 18/16 Q1017 NOSIG